Weather Underground History

Measured at station KPAAUBUR15 on Fawn Lake
in the Lake Wynonah community, Auburn, PA


Station Historical Data
 
Daily Summary for September 19, 2017 Units:  English    Metric   Both
« Previous Day
Next Day »
Daily Weekly Monthly Yearly Custom
  Current: High: Low: Average:
Temperature: 66.3 °F 79.5 °F 61.5 °F 69.2 °F
Dew Point: 65.7 °F 73.1 °F 61.3 °F 66.4 °F
Humidity: 98% 100% 72% 92%
Wind Speed: 0.0mph 10.4mph 0.0mph 1.4mph
Wind Gust: 0.0mph 10.4mph - -
WindCalm - - ESE
Pressure: 29.93 in 30.07 in 29.89 in -
Precipitation: 0.02 in      
Historical Graphs
 
 
Tabular Data for September 19, 2017
Time Temperature Dew Point Pressure Wind Wind Speed Wind Gust Humidity Rainfall Rate (Hourly) solar Conditions
00:02 61.7 °F 61.4 °F 30.07 in Calm     99% 0.00 in WeatherDisplay:10.37 W/m2 OVC
00:07 61.7 °F 61.4 °F 30.07 in Calm     99% 0.00 in WeatherDisplay:10.37 W/m2 OVC
00:12 61.6 °F 61.3 °F 30.07 in Calm     99% 0.00 in WeatherDisplay:10.37 W/m2 OVC
00:17 61.7 °F 61.4 °F 30.07 in Calm     99% 0.00 in WeatherDisplay:10.37 W/m2 OVC
00:22 61.8 °F 61.5 °F 30.07 in Calm     99% 0.01 in WeatherDisplay:10.37 W/m2 RA
00:27 62.2 °F 62.2 °F 30.07 in Calm     100% 0.01 in WeatherDisplay:10.37 W/m2 OVC
00:33 62.5 °F 62.5 °F 30.07 in Calm     100% 0.01 in WeatherDisplay:10.37 W/m2 OVC
00:38 62.7 °F 62.7 °F 30.07 in Calm     100% 0.01 in WeatherDisplay:10.37 W/m2 OVC
00:43 62.9 °F 62.9 °F 30.06 in Calm     100% 0.01 in WeatherDisplay:10.37 W/m2 OVC
00:48 62.8 °F 62.8 °F 30.06 in Calm     100% 0.01 in WeatherDisplay:10.37 W/m2 OVC
00:53 62.8 °F 62.8 °F 30.06 in Calm     100% 0.01 in WeatherDisplay:10.37 W/m2 BKN
00:58 62.7 °F 62.7 °F 30.06 in Calm     100% 0.01 in WeatherDisplay:10.37 W/m2 BKN
01:03 62.7 °F 62.7 °F 30.06 in Calm     100% 0.01 in WeatherDisplay:10.37 W/m2 BKN
01:08 62.6 °F 62.6 °F 30.06 in Calm     100% 0.01 in WeatherDisplay:10.37 W/m2 BKN
01:14 62.5 °F 62.5 °F 30.06 in Calm     100% 0.01 in WeatherDisplay:10.37 W/m2 BKN
01:19 62.5 °F 62.5 °F 30.06 in Calm     100% 0.01 in WeatherDisplay:10.37 W/m2 BKN
01:24 62.4 °F 62.4 °F 30.05 in Calm     100% 0.00 in WeatherDisplay:10.37 W/m2 SCT
01:29 62.3 °F 62.3 °F 30.05 in Calm     100% 0.00 in WeatherDisplay:10.37 W/m2 SCT
01:34 62.3 °F 62.3 °F 30.05 in Calm     100% 0.00 in WeatherDisplay:10.37 W/m2 SCT
01:39 62.2 °F 62.2 °F 30.05 in Calm     100% 0.00 in WeatherDisplay:10.37 W/m2 SCT
01:44 62.1 °F 62.1 °F 30.05 in Calm     100% 0.00 in WeatherDisplay:10.37 W/m2 SCT
01:50 62.0 °F 62.0 °F 30.05 in Calm     100% 0.00 in WeatherDisplay:10.37 W/m2 SCT
01:55 61.9 °F 61.9 °F 30.04 in Calm     100% 0.00 in WeatherDisplay:10.37 W/m2 BKN
02:00 61.8 °F 61.8 °F 30.04 in Calm     100% 0.00 in WeatherDisplay:10.37 W/m2 BKN
02:05 61.8 °F 61.8 °F 30.04 in Calm     100% 0.00 in WeatherDisplay:10.37 W/m2 BKN
02:10 61.7 °F 61.7 °F 30.04 in Calm     100% 0.00 in WeatherDisplay:10.37 W/m2 BKN
02:15 61.7 °F 61.7 °F 30.04 in Calm     100% 0.00 in WeatherDisplay:10.37 W/m2 BKN
02:20 61.6 °F 61.6 °F 30.04 in Calm     100% 0.00 in WeatherDisplay:10.37 W/m2 BKN
02:25 61.5 °F 61.5 °F 30.04 in Calm     100% 0.00 in WeatherDisplay:10.37 W/m2 BKN
02:31 61.5 °F 61.5 °F 30.04 in Calm     100% 0.00 in WeatherDisplay:10.37 W/m2 BKN
02:36 61.5 °F 61.5 °F 30.04 in Calm     100% 0.00 in WeatherDisplay:10.37 W/m2 BKN
02:41 61.5 °F 61.5 °F 30.04 in Calm     100% 0.00 in WeatherDisplay:10.37 W/m2 BKN
02:46 61.5 °F 61.5 °F 30.04 in Calm     100% 0.00 in WeatherDisplay:10.37 W/m2 BKN
02:51 61.5 °F 61.5 °F 30.04 in Calm     100% 0.00 in WeatherDisplay:10.37 W/m2 BKN
02:56 61.6 °F 61.6 °F 30.04 in Calm     100% 0.00 in WeatherDisplay:10.37 W/m2 BKN
03:02 61.9 °F 61.9 °F 30.04 in Calm     100% 0.00 in WeatherDisplay:10.37 W/m2 OVC
03:07 62.1 °F 62.1 °F 30.04 in Calm     100% 0.00 in WeatherDisplay:10.37 W/m2 OVC
03:12 62.4 °F 62.4 °F 30.04 in Calm     100% 0.00 in WeatherDisplay:10.37 W/m2 OVC
03:17 62.6 °F 62.6 °F 30.03 in Calm     100% 0.00 in WeatherDisplay:10.37 W/m2 OVC
03:22 62.9 °F 62.9 °F 30.03 in Calm     100% 0.00 in WeatherDisplay:10.37 W/m2 OVC
03:27 63.2 °F 63.2 °F 30.03 in Calm     100% 0.00 in WeatherDisplay:10.37 W/m2 OVC
03:32 63.5 °F 63.5 °F 30.03 in ENE 2.0 mph 2.0 mph 100% 0.00 in WeatherDisplay:10.37 W/m2 OVC
03:37 63.8 °F 63.8 °F 30.03 in Calm     100% 0.00 in WeatherDisplay:10.37 W/m2 OVC
03:42 63.8 °F 63.8 °F 30.03 in Calm     100% 0.00 in WeatherDisplay:10.37 W/m2 OVC
03:48 64.1 °F 64.1 °F 30.03 in Calm     100% 0.00 in WeatherDisplay:10.37 W/m2 OVC
03:53 64.3 °F 64.3 °F 30.03 in ENE 1.2 mph   100% 0.00 in WeatherDisplay:10.37 W/m2 OVC
03:58 64.5 °F 64.5 °F 30.03 in Calm     100% 0.00 in WeatherDisplay:10.37 W/m2 OVC
04:03 64.4 °F 64.4 °F 30.03 in Calm     100% 0.00 in WeatherDisplay:10.37 W/m2 OVC
04:08 64.4 °F 64.4 °F 30.03 in Calm     100% 0.00 in WeatherDisplay:10.37 W/m2 OVC
04:13 64.4 °F 64.4 °F 30.03 in Calm     100% 0.00 in WeatherDisplay:10.37 W/m2 OVC
04:18 64.6 °F 64.6 °F 30.03 in Calm     100% 0.00 in WeatherDisplay:10.37 W/m2 OVC
04:23 64.6 °F 64.6 °F 30.03 in Calm     100% 0.00 in WeatherDisplay:10.37 W/m2 SCT
04:28 64.3 °F 64.3 °F 30.03 in Calm     100% 0.00 in WeatherDisplay:10.37 W/m2 SCT
04:33 64.1 °F 64.1 °F 30.03 in Calm     100% 0.00 in WeatherDisplay:10.37 W/m2 SCT
04:38 63.8 °F 63.8 °F 30.03 in Calm     100% 0.00 in WeatherDisplay:10.37 W/m2 SCT
04:44 63.6 °F 63.6 °F 30.03 in Calm     100% 0.00 in WeatherDisplay:10.37 W/m2 BKN
04:49 63.4 °F 63.4 °F 30.03 in Calm     100% 0.00 in WeatherDisplay:10.37 W/m2 BKN
04:54 63.3 °F 63.3 °F 30.03 in Calm     100% 0.00 in WeatherDisplay:10.37 W/m2 BKN
04:59 63.1 °F 63.1 °F 30.03 in Calm     100% 0.00 in WeatherDisplay:10.37 W/m2 BKN
05:04 62.9 °F 62.9 °F 30.03 in Calm     100% 0.00 in WeatherDisplay:10.37 W/m2 OVC
05:09 62.7 °F 62.7 °F 30.03 in Calm     100% 0.00 in WeatherDisplay:10.37 W/m2 OVC
05:14 62.5 °F 62.5 °F 30.03 in Calm     100% 0.00 in WeatherDisplay:10.37 W/m2 OVC
05:19 62.3 °F 62.3 °F 30.03 in Calm     100% 0.00 in WeatherDisplay:10.37 W/m2 OVC
05:25 62.1 °F 62.1 °F 30.03 in Calm     100% 0.00 in WeatherDisplay:10.37 W/m2 OVC
05:30 62.0 °F 62.0 °F 30.03 in Calm     100% 0.00 in WeatherDisplay:10.37 W/m2 OVC
05:35 62.0 °F 62.0 °F 30.03 in Calm     100% 0.00 in WeatherDisplay:10.37 W/m2 OVC
05:40 61.9 °F 61.9 °F 30.03 in Calm     100% 0.00 in WeatherDisplay:10.37 W/m2 OVC
05:45 61.9 °F 61.9 °F 30.03 in Calm     100% 0.00 in WeatherDisplay:10.37 W/m2 OVC
05:50 62.0 °F 62.0 °F 30.03 in Calm     100% 0.00 in WeatherDisplay:10.37 W/m2 OVC
05:55 62.0 °F 62.0 °F 30.03 in Calm     100% 0.00 in WeatherDisplay:10.37 W/m2 OVC
06:00 62.1 °F 62.1 °F 30.03 in Calm     100% 0.00 in WeatherDisplay:10.37 W/m2 OVC
06:05 62.2 °F 62.2 °F 30.03 in Calm     100% 0.00 in WeatherDisplay:10.37 W/m2 OVC
06:11 62.2 °F 62.2 °F 30.03 in Calm     100% 0.00 in WeatherDisplay:10.37 W/m2 OVC
06:16 62.3 °F 62.3 °F 30.03 in Calm     100% 0.00 in WeatherDisplay:10.37 W/m2 OVC
06:21 62.4 °F 62.4 °F 30.03 in Calm     100% 0.00 in WeatherDisplay:10.37 W/m2 OVC
06:26 62.4 °F 62.4 °F 30.03 in Calm     100% 0.00 in WeatherDisplay:10.37 W/m2 OVC
06:31 62.5 °F 62.5 °F 30.03 in Calm     100% 0.00 in WeatherDisplay:10.37 W/m2 OVC
06:36 62.6 °F 62.6 °F 30.03 in Calm     100% 0.00 in WeatherDisplay:10.37 W/m2 OVC
06:42 62.6 °F 62.6 °F 30.03 in Calm     100% 0.00 in WeatherDisplay:10.37 W/m2 OVC
06:47 62.7 °F 62.7 °F 30.03 in Calm     100% 0.00 in WeatherDisplay:10.37 W/m2 OVC
06:52 62.8 °F 62.8 °F 30.03 in Calm     100% 0.00 in WeatherDisplay:10.37 W/m2 OVC
06:57 62.9 °F 62.9 °F 30.03 in Calm     100% 0.00 in WeatherDisplay:10.37 W/m2 OVC
07:02 62.9 °F 62.9 °F 30.03 in Calm     100% 0.00 in WeatherDisplay:10.37 W/m2 OVC
07:07 63.0 °F 63.0 °F 30.03 in Calm     100% 0.00 in WeatherDisplay:10.37 W/m2 OVC
07:12 63.0 °F 63.0 °F 30.03 in Calm     100% 0.00 in WeatherDisplay:10.37 W/m2 OVC
07:17 63.0 °F 63.0 °F 30.03 in Calm     100% 0.00 in WeatherDisplay:10.37 W/m2 OVC
07:22 63.1 °F 63.1 °F 30.03 in Calm     100% 0.00 in WeatherDisplay:10.37 W/m2 OVC
07:28 63.1 °F 63.1 °F 30.03 in Calm     100% 0.00 in WeatherDisplay:10.37 W/m2 OVC
07:33 63.1 °F 63.1 °F 30.03 in Calm     100% 0.00 in WeatherDisplay:10.37 W/m2 OVC
07:38 63.2 °F 63.2 °F 30.03 in Calm     100% 0.00 in WeatherDisplay:10.37 W/m2 OVC
07:43 63.3 °F 63.3 °F 30.03 in Calm     100% 0.00 in WeatherDisplay:10.37 W/m2 OVC
07:48 63.4 °F 63.4 °F 30.03 in Calm     100% 0.00 in WeatherDisplay:10.37 W/m2 OVC
07:53 63.6 °F 63.6 °F 30.02 in Calm     100% 0.00 in WeatherDisplay:10.37 W/m2 OVC
07:58 63.8 °F 63.8 °F 30.02 in Calm     100% 0.00 in WeatherDisplay:10.37 W/m2 OVC
08:04 63.9 °F 63.9 °F 30.02 in Calm     100% 0.00 in WeatherDisplay:10.37 W/m2 OVC
08:09 64.1 °F 64.1 °F 30.02 in Calm     100% 0.00 in WeatherDisplay:10.37 W/m2 OVC
08:14 64.4 °F 64.4 °F 30.02 in Calm     100% 0.00 in WeatherDisplay:10.37 W/m2 OVC
08:19 64.7 °F 64.7 °F 30.02 in Calm     100% 0.00 in WeatherDisplay:10.37 W/m2 OVC
08:24 64.8 °F 64.8 °F 30.02 in Calm     100% 0.00 in WeatherDisplay:10.37 W/m2 OVC
08:29 64.9 °F 64.9 °F 30.02 in Calm     100% 0.00 in WeatherDisplay:10.37 W/m2 OVC
08:34 65.1 °F 65.1 °F 30.02 in ENE 2.3 mph   100% 0.00 in WeatherDisplay:10.37 W/m2 OVC
08:39 65.3 °F 65.3 °F 30.02 in Calm     100% 0.00 in WeatherDisplay:10.37 W/m2 OVC
08:45 65.4 °F 65.4 °F 30.02 in Calm     100% 0.00 in WeatherDisplay:10.37 W/m2 OVC
08:50 65.5 °F 65.5 °F 30.02 in Calm     100% 0.00 in WeatherDisplay:10.37 W/m2 OVC
08:55 65.7 °F 65.7 °F 30.02 in Calm     100% 0.00 in WeatherDisplay:10.37 W/m2 OVC
09:00 65.8 °F 65.8 °F 30.02 in Calm     100% 0.00 in WeatherDisplay:10.37 W/m2 OVC
09:05 66.0 °F 66.0 °F 30.02 in Calm     100% 0.00 in WeatherDisplay:10.37 W/m2 OVC
09:10 66.1 °F 66.1 °F 30.02 in ENE 2.0 mph   100% 0.00 in WeatherDisplay:10.37 W/m2 OVC
09:15 66.2 °F 66.2 °F 30.02 in Calm     100% 0.00 in WeatherDisplay:10.37 W/m2 OVC
09:20 66.5 °F 66.5 °F 30.02 in Calm     100% 0.00 in WeatherDisplay:10.37 W/m2 OVC
09:25 66.6 °F 66.6 °F 30.02 in NE 1.2 mph   100% 0.00 in WeatherDisplay:10.37 W/m2 OVC
09:31 66.7 °F 66.7 °F 30.02 in East 4.6 mph 4.6 mph 100% 0.00 in WeatherDisplay:10.37 W/m2 OVC
09:36 67.0 °F 67.0 °F 30.02 in NE 3.5 mph 3.5 mph 100% 0.00 in WeatherDisplay:10.37 W/m2 OVC
09:41 67.3 °F 67.0 °F 30.02 in NE 4.6 mph 4.6 mph 99% 0.00 in WeatherDisplay:10.37 W/m2 OVC
09:46 67.6 °F 67.0 °F 30.02 in ENE 6.9 mph 6.9 mph 98% 0.00 in WeatherDisplay:10.37 W/m2 OVC
09:51 67.9 °F 67.0 °F 30.02 in ENE 6.0 mph 6.0 mph 97% 0.00 in WeatherDisplay:10.37 W/m2 OVC
09:56 68.2 °F 67.0 °F 30.02 in ENE 6.9 mph 6.9 mph 96% 0.00 in WeatherDisplay:10.37 W/m2 OVC
10:02 68.4 °F 67.2 °F 30.02 in Calm     96% 0.00 in WeatherDisplay:10.37 W/m2 OVC
10:07 68.7 °F 67.5 °F 30.02 in ENE 1.2 mph   96% 0.00 in WeatherDisplay:10.37 W/m2 OVC
10:12 68.9 °F 67.4 °F 30.02 in ENE 5.8 mph 5.8 mph 95% 0.00 in WeatherDisplay:10.37 W/m2 OVC
10:17 69.2 °F 67.7 °F 30.02 in ENE 4.0 mph 4.0 mph 95% 0.00 in WeatherDisplay:10.37 W/m2 OVC
10:22 69.5 °F 67.7 °F 30.02 in East 1.2 mph   94% 0.00 in WeatherDisplay:10.37 W/m2 OVC
10:27 69.8 °F 67.7 °F 30.01 in ENE 5.8 mph 5.8 mph 93% 0.00 in WeatherDisplay:10.37 W/m2 OVC
10:32 69.9 °F 67.8 °F 30.01 in ENE 4.0 mph 4.0 mph 93% 0.00 in WeatherDisplay:10.37 W/m2 OVC
10:37 70.2 °F 68.1 °F 30.01 in ENE 4.6 mph 4.6 mph 93% 0.00 in WeatherDisplay:10.37 W/m2 OVC
10:42 70.3 °F 67.9 °F 30.01 in ENE 6.0 mph 6.0 mph 92% 0.00 in WeatherDisplay:10.37 W/m2 OVC
10:47 70.3 °F 67.9 °F 30.01 in ENE 4.6 mph 4.6 mph 92% 0.00 in WeatherDisplay:10.37 W/m2 OVC
10:53 70.3 °F 67.5 °F 30.01 in East 9.0 mph 9.0 mph 91% 0.00 in WeatherDisplay:10.37 W/m2 OVC
10:58 70.2 °F 67.4 °F 30.01 in NE 9.2 mph 9.2 mph 91% 0.00 in WeatherDisplay:10.37 W/m2 OVC
11:03 70.3 °F 67.5 °F 30.01 in NE 9.0 mph 9.0 mph 91% 0.00 in WeatherDisplay:10.37 W/m2 BKN
11:08 70.4 °F 68.0 °F 30.01 in NE 4.6 mph 4.6 mph 92% 0.00 in WeatherDisplay:10.37 W/m2 BKN
11:13 70.8 °F 68.0 °F 30.01 in ENE 8.1 mph 8.1 mph 91% 0.00 in WeatherDisplay:10.37 W/m2 BKN
11:18 71.2 °F 67.8 °F 30.01 in ENE 10.4 mph 10.4 mph 89% 0.00 in WeatherDisplay:10.37 W/m2 BKN
11:23 71.3 °F 67.9 °F 30.01 in ENE 5.0 mph 5.0 mph 89% 0.00 in WeatherDisplay:10.37 W/m2 BKN
11:28 71.4 °F 67.7 °F 30.01 in East 8.0 mph 8.0 mph 88% 0.00 in WeatherDisplay:10.37 W/m2 BKN
11:33 72.0 °F 68.2 °F 30.01 in ENE 6.9 mph 6.9 mph 88% 0.00 in WeatherDisplay:10.37 W/m2 BKN
11:39 72.4 °F 68.3 °F 30.01 in NNE 2.3 mph 2.3 mph 87% 0.00 in WeatherDisplay:10.37 W/m2 BKN
11:44 72.8 °F 68.4 °F 30.01 in East 6.9 mph 6.9 mph 86% 0.00 in WeatherDisplay:10.37 W/m2 BKN
11:49 73.3 °F 68.5 °F 30.00 in ENE 6.9 mph 6.9 mph 85% 0.00 in WeatherDisplay:10.37 W/m2 BKN
11:54 73.7 °F 68.9 °F 30.00 in ENE 4.6 mph   85% 0.00 in WeatherDisplay:10.37 W/m2 BKN
11:59 74.2 °F 69.1 °F 30.00 in NE 3.5 mph 3.5 mph 84% 0.00 in WeatherDisplay:10.37 W/m2 BKN
12:04 74.5 °F 69.7 °F 29.99 in NNE 1.0 mph   85% 0.00 in WeatherDisplay:10.37 W/m2 BKN
12:09 74.9 °F 69.4 °F 29.99 in ENE 6.9 mph 6.9 mph 83% 0.00 in WeatherDisplay:10.37 W/m2 BKN
12:15 75.0 °F 69.5 °F 29.99 in NNW 4.6 mph 4.6 mph 83% 0.00 in WeatherDisplay:10.37 W/m2 BKN
12:20 75.3 °F 69.8 °F 29.99 in North 5.8 mph 5.8 mph 83% 0.00 in WeatherDisplay:10.37 W/m2 BKN
12:25 75.4 °F 69.5 °F 29.99 in North 8.1 mph 8.1 mph 82% 0.00 in WeatherDisplay:10.37 W/m2 BKN
12:30 75.0 °F 69.1 °F 29.99 in North 5.0 mph 5.0 mph 82% 0.00 in WeatherDisplay:10.37 W/m2 BKN
12:35 74.9 °F 69.0 °F 29.99 in NE 5.8 mph 5.8 mph 82% 0.00 in WeatherDisplay:10.37 W/m2 BKN
12:40 74.9 °F 69.0 °F 29.98 in Calm     82% 0.00 in WeatherDisplay:10.37 W/m2 BKN
12:45 75.1 °F 69.2 °F 29.98 in NNE 3.5 mph   82% 0.00 in WeatherDisplay:10.37 W/m2 BKN
12:51 75.6 °F 69.7 °F 29.98 in Calm     82% 0.00 in WeatherDisplay:10.37 W/m2 BKN
12:56 76.2 °F 70.3 °F 29.98 in NE 1.0 mph 1.0 mph 82% 0.00 in WeatherDisplay:10.37 W/m2 BKN
13:01 76.7 °F 70.1 °F 29.97 in ENE 4.6 mph 4.6 mph 80% 0.00 in WeatherDisplay:10.37 W/m2 SCT
13:06 76.7 °F 69.7 °F 29.97 in ENE 3.5 mph   79% 0.00 in WeatherDisplay:10.37 W/m2 SCT
13:11 76.6 °F 69.6 °F 29.97 in North 4.6 mph 4.6 mph 79% 0.00 in WeatherDisplay:10.37 W/m2 SCT
13:16 76.7 °F 70.4 °F 29.97 in NW 3.5 mph 3.5 mph 81% 0.00 in WeatherDisplay:10.37 W/m2 SCT
13:21 76.7 °F 70.1 °F 29.97 in NNW 8.1 mph 8.1 mph 80% 0.00 in WeatherDisplay:10.37 W/m2 SCT
13:26 76.7 °F 70.8 °F 29.97 in North 1.2 mph 1.2 mph 82% 0.00 in WeatherDisplay:10.37 W/m2 SCT
13:32 76.7 °F 70.1 °F 29.97 in NNW 1.2 mph   80% 0.00 in WeatherDisplay:10.37 W/m2 SCT
13:37 76.7 °F 70.1 °F 29.96 in Calm     80% 0.00 in WeatherDisplay:10.37 W/m2 SCT
13:42 76.6 °F 69.6 °F 29.96 in Calm     79% 0.00 in WeatherDisplay:10.37 W/m2 SCT
13:47 77.0 °F 70.0 °F 29.95 in Calm     79% 0.00 in WeatherDisplay:10.37 W/m2 SCT
13:52 77.6 °F 69.8 °F 29.95 in NNE 6.0 mph 6.0 mph 77% 0.00 in WeatherDisplay:10.37 W/m2 SCT
13:57 77.9 °F 69.7 °F 29.95 in ENE 5.8 mph 5.8 mph 76% 0.00 in WeatherDisplay:10.37 W/m2 SCT
14:02 78.2 °F 69.6 °F 29.95 in ENE 4.0 mph 4.0 mph 75% 0.00 in WeatherDisplay:10.37 W/m2 FEW
14:07 78.7 °F 69.7 °F 29.95 in ENE 8.1 mph 8.1 mph 74% 0.00 in WeatherDisplay:10.37 W/m2 FEW
14:12 78.7 °F 68.9 °F 29.94 in ENE 6.0 mph 6.0 mph 72% 0.00 in WeatherDisplay:10.37 W/m2 FEW
14:17 79.1 °F 69.3 °F 29.94 in ENE 9.2 mph 9.2 mph 72% 0.00 in WeatherDisplay:10.37 W/m2 FEW
14:22 79.3 °F 69.5 °F 29.94 in ENE 8.1 mph 8.1 mph 72% 0.00 in WeatherDisplay:10.37 W/m2 FEW
14:27 78.7 °F 69.3 °F 29.94 in NE 3.5 mph   73% 0.00 in WeatherDisplay:10.37 W/m2 FEW
14:32 78.2 °F 69.6 °F 29.94 in NE 1.2 mph 1.2 mph 75% 0.00 in WeatherDisplay:10.37 W/m2 FEW
14:37 78.4 °F 69.4 °F 29.94 in Calm     74% 0.00 in WeatherDisplay:10.37 W/m2 FEW
14:43 78.9 °F 70.3 °F 29.94 in Calm     75% 0.00 in WeatherDisplay:10.37 W/m2 FEW
14:48 79.5 °F 70.5 °F 29.93 in NNW 5.8 mph 5.8 mph 74% 0.00 in WeatherDisplay:10.37 W/m2 FEW
14:51 79.5 °F 70.5 °F 29.93 in Calm     74% 0.00 in WeatherDisplay:10.37 W/m2 FEW
14:56 79.5 °F 69.7 °F 29.93 in NNE 3.5 mph 3.5 mph 72% 0.00 in WeatherDisplay:10.37 W/m2 FEW
15:01 79.5 °F 70.1 °F 29.93 in North 8.0 mph 8.0 mph 73% 0.00 in WeatherDisplay:10.37 W/m2 FEW
15:06 79.5 °F 70.5 °F 29.93 in North 5.8 mph 5.8 mph 74% 0.00 in WeatherDisplay:10.37 W/m2 FEW
15:11 79.4 °F 70.4 °F 29.92 in North 5.8 mph 5.8 mph 74% 0.00 in WeatherDisplay:10.37 W/m2 FEW
15:16 78.9 °F 69.9 °F 29.92 in NE 4.6 mph 4.6 mph 74% 0.00 in WeatherDisplay:10.37 W/m2 FEW
15:22 78.4 °F 69.8 °F 29.93 in North 6.0 mph 6.0 mph 75% 0.00 in WeatherDisplay:10.37 W/m2 FEW
15:27 77.6 °F 69.8 °F 29.93 in Calm     77% 0.01 in WeatherDisplay:10.37 W/m2 RA
15:32 76.7 °F 69.7 °F 29.93 in Calm     79% 0.01 in WeatherDisplay:10.37 W/m2 FEW
15:37 76.2 °F 69.9 °F 29.92 in Calm     81% 0.01 in WeatherDisplay:10.37 W/m2 FEW
15:42 75.7 °F 71.2 °F 29.92 in ENE 1.0 mph   86% 0.01 in WeatherDisplay:10.37 W/m2 FEW
15:47 75.1 °F 71.3 °F 29.92 in Calm     88% 0.01 in WeatherDisplay:10.37 W/m2 FEW
15:52 75.2 °F 72.1 °F 29.92 in Calm     90% 0.01 in WeatherDisplay:10.37 W/m2 FEW
15:57 75.7 °F 72.2 °F 29.91 in Calm     89% 0.01 in WeatherDisplay:10.37 W/m2 FEW
16:03 76.3 °F 73.1 °F 29.91 in Calm     90% 0.01 in WeatherDisplay:10.37 W/m2 FEW
16:08 76.7 °F 72.5 °F 29.92 in Calm     87% 0.01 in WeatherDisplay:10.37 W/m2 FEW
16:13 77.0 °F 72.1 °F 29.92 in Calm     85% 0.01 in WeatherDisplay:10.37 W/m2 FEW
16:18 77.2 °F 72.0 °F 29.92 in Calm     84% 0.01 in WeatherDisplay:10.37 W/m2 FEW
16:23 77.2 °F 72.0 °F 29.92 in Calm     84% 0.01 in WeatherDisplay:10.37 W/m2 FEW
16:28 77.5 °F 72.6 °F 29.92 in Calm     85% 0.00 in WeatherDisplay:10.37 W/m2 FEW
16:33 77.7 °F 72.1 °F 29.92 in Calm     83% 0.00 in WeatherDisplay:10.37 W/m2 FEW
16:39 77.9 °F 72.7 °F 29.91 in Calm   0.2 mph 84% 0.00 in WeatherDisplay:10.37 W/m2 FEW
16:44 78.0 °F 72.4 °F 29.91 in Calm     83% 0.00 in WeatherDisplay:10.37 W/m2 FEW
16:49 77.9 °F 72.0 °F 29.91 in Calm     82% 0.00 in WeatherDisplay:10.37 W/m2 FEW
16:54 77.9 °F 72.0 °F 29.92 in Calm     82% 0.00 in WeatherDisplay:10.37 W/m2 FEW
16:59 77.9 °F 70.5 °F 29.91 in East 4.6 mph   78% 0.00 in WeatherDisplay:10.37 W/m2 FEW
17:04 78.0 °F 70.6 °F 29.91 in ENE 3.5 mph   78% 0.00 in WeatherDisplay:10.37 W/m2 CLR
17:09 78.4 °F 70.6 °F 29.91 in Calm     77% 0.00 in WeatherDisplay:10.37 W/m2 CLR
17:14 78.5 °F 70.3 °F 29.91 in North 4.6 mph 4.6 mph 76% 0.00 in WeatherDisplay:10.37 W/m2 CLR
17:20 78.4 °F 70.2 °F 29.91 in North 1.2 mph   76% 0.00 in WeatherDisplay:10.37 W/m2 CLR
17:25 78.1 °F 69.9 °F 29.91 in ENE 4.6 mph 4.6 mph 76% 0.00 in WeatherDisplay:10.37 W/m2 CLR
17:30 78.0 °F 69.8 °F 29.91 in ENE 2.3 mph 2.3 mph 76% 0.00 in WeatherDisplay:10.37 W/m2 CLR
17:35 78.2 °F 70.0 °F 29.90 in Calm     76% 0.00 in WeatherDisplay:10.37 W/m2 CLR
17:40 78.2 °F 69.6 °F 29.90 in North 6.0 mph 6.0 mph 75% 0.00 in WeatherDisplay:10.37 W/m2 CLR
17:45 78.2 °F 69.6 °F 29.90 in ENE 6.9 mph 6.9 mph 75% 0.00 in WeatherDisplay:10.37 W/m2 CLR
17:50 78.0 °F 69.8 °F 29.90 in NE 4.6 mph 4.6 mph 76% 0.00 in WeatherDisplay:10.37 W/m2 CLR
17:55 78.0 °F 69.8 °F 29.90 in Calm     76% 0.00 in WeatherDisplay:10.37 W/m2 CLR
18:00 77.9 °F 69.7 °F 29.90 in Calm     76% 0.00 in WeatherDisplay:10.37 W/m2 CLR
18:06 77.8 °F 70.0 °F 29.90 in Calm     77% 0.00 in WeatherDisplay:10.37 W/m2 CLR
18:11 77.7 °F 69.5 °F 29.90 in Calm     76% 0.00 in WeatherDisplay:10.37 W/m2 CLR
18:16 77.6 °F 69.8 °F 29.90 in Calm     77% 0.00 in WeatherDisplay:10.37 W/m2 CLR
18:21 77.4 °F 70.0 °F 29.90 in Calm     78% 0.00 in WeatherDisplay:10.37 W/m2 CLR
18:26 77.1 °F 70.1 °F 29.90 in Calm     79% 0.00 in WeatherDisplay:10.37 W/m2 CLR
18:31 76.8 °F 69.4 °F 29.90 in Calm     78% 0.00 in WeatherDisplay:10.37 W/m2 CLR
18:36 76.6 °F 69.6 °F 29.90 in Calm     79% 0.00 in WeatherDisplay:10.37 W/m2 CLR
18:42 76.3 °F 69.3 °F 29.90 in Calm     79% 0.00 in WeatherDisplay:10.37 W/m2 CLR
18:47 76.1 °F 69.1 °F 29.90 in Calm     79% 0.00 in WeatherDisplay:10.37 W/m2 CLR
18:52 75.8 °F 69.9 °F 29.90 in Calm     82% 0.00 in WeatherDisplay:10.37 W/m2 CLR
18:57 75.3 °F 69.8 °F 29.90 in Calm     83% 0.00 in WeatherDisplay:10.37 W/m2 CLR
19:02 74.7 °F 69.5 °F 29.89 in Calm     84% 0.00 in WeatherDisplay:10.37 W/m2 FEW
19:07 74.0 °F 69.5 °F 29.90 in Calm     86% 0.00 in WeatherDisplay:10.37 W/m2 FEW
19:12 73.4 °F 69.3 °F 29.90 in Calm     87% 0.00 in WeatherDisplay:10.37 W/m2 FEW
19:17 72.7 °F 68.9 °F 29.90 in Calm     88% 0.00 in WeatherDisplay:10.37 W/m2 FEW
19:23 72.2 °F 68.4 °F 29.90 in Calm     88% 0.00 in WeatherDisplay:10.37 W/m2 FEW
19:28 71.8 °F 68.4 °F 29.90 in Calm     89% 0.00 in WeatherDisplay:10.37 W/m2 FEW
19:33 71.3 °F 68.2 °F 29.90 in Calm     90% 0.00 in WeatherDisplay:10.37 W/m2 FEW
19:38 70.9 °F 67.8 °F 29.90 in Calm     90% 0.00 in WeatherDisplay:10.37 W/m2 FEW
19:40 70.8 °F 67.7 °F 29.90 in Calm     90% 0.00 in WeatherDisplay:10.37 W/m2 FEW
19:45 70.4 °F 67.6 °F 29.90 in Calm     91% 0.00 in WeatherDisplay:10.37 W/m2 FEW
19:50 70.1 °F 67.3 °F 29.90 in Calm     91% 0.00 in WeatherDisplay:10.37 W/m2 FEW
19:55 69.7 °F 67.3 °F 29.91 in Calm     92% 0.00 in WeatherDisplay:10.37 W/m2 FEW
20:01 69.4 °F 67.0 °F 29.91 in Calm     92% 0.00 in WeatherDisplay:10.37 W/m2 OVC
20:06 69.2 °F 67.1 °F 29.91 in Calm     93% 0.00 in WeatherDisplay:10.37 W/m2 OVC
20:11 68.9 °F 66.8 °F 29.91 in Calm     93% 0.00 in WeatherDisplay:10.37 W/m2 OVC
20:16 68.6 °F 66.8 °F 29.91 in Calm     94% 0.00 in WeatherDisplay:10.37 W/m2 OVC
20:21 68.4 °F 66.6 °F 29.91 in Calm     94% 0.00 in WeatherDisplay:10.37 W/m2 OVC
20:26 68.2 °F 66.4 °F 29.91 in Calm     94% 0.00 in WeatherDisplay:10.37 W/m2 OVC
20:31 67.9 °F 66.1 °F 29.91 in Calm     94% 0.00 in WeatherDisplay:10.37 W/m2 OVC
20:36 67.8 °F 66.3 °F 29.92 in Calm     95% 0.00 in WeatherDisplay:10.37 W/m2 OVC
20:42 67.6 °F 66.1 °F 29.92 in Calm     95% 0.00 in WeatherDisplay:10.37 W/m2 OVC
20:47 67.4 °F 65.9 °F 29.92 in Calm     95% 0.00 in WeatherDisplay:10.37 W/m2 OVC
20:52 67.3 °F 65.8 °F 29.92 in Calm     95% 0.00 in WeatherDisplay:10.37 W/m2 OVC
20:57 67.1 °F 65.9 °F 29.92 in Calm     96% 0.00 in WeatherDisplay:10.37 W/m2 OVC
21:02 66.9 °F 65.7 °F 29.93 in Calm     96% 0.00 in WeatherDisplay:10.37 W/m2 OVC
21:07 66.8 °F 65.6 °F 29.93 in Calm     96% 0.00 in WeatherDisplay:10.37 W/m2 OVC
21:12 66.7 °F 65.5 °F 29.93 in Calm     96% 0.00 in WeatherDisplay:10.37 W/m2 OVC
21:17 66.5 °F 65.3 °F 29.93 in Calm     96% 0.00 in WeatherDisplay:10.37 W/m2 OVC
21:23 66.4 °F 65.2 °F 29.93 in Calm     96% 0.00 in WeatherDisplay:10.37 W/m2 OVC
21:28 66.3 °F 65.4 °F 29.93 in Calm     97% 0.00 in WeatherDisplay:10.37 W/m2 OVC
21:33 66.4 °F 65.5 °F 29.93 in Calm     97% 0.00 in WeatherDisplay:10.37 W/m2 OVC
21:38 66.3 °F 65.4 °F 29.93 in Calm     97% 0.00 in WeatherDisplay:10.37 W/m2 OVC
21:43 66.3 °F 65.4 °F 29.93 in Calm     97% 0.00 in WeatherDisplay:10.37 W/m2 OVC
21:48 66.3 °F 65.4 °F 29.94 in Calm     97% 0.00 in WeatherDisplay:10.37 W/m2 OVC
21:53 66.3 °F 65.7 °F 29.93 in Calm     98% 0.00 in WeatherDisplay:10.37 W/m2 OVC
Lake Wynonah, (Auburn) PA USA
Compliments of Weather Underground - 2 mb